Time;durP1;ratioP1;P1;durP2;ratioP2;P2;SDS_P1;SDS_P2;PMS_P1;PMS_P2;Temp;Humidity;BMP_temperature;BMP_pressure;BME280_temperature;BME280_humidity;BME280_pressure;Samples;Min_cycle;Max_cycle;Signal;HPM_P1;HPM_P2
2022/06/23 00:09:25;;;;;;;3.28;2.00;;;;;;;17.21;77.96;101275.84;20958372;28;20068;-68
2022/06/23 00:19:46;;;;;;;3.05;2.20;;;;;;;17.12;76.61;101279.22;20954555;28;20055;-69
2022/06/23 00:30:25;;;;;;;2.90;2.33;;;;;;;17.08;77.49;101268.13;20939284;28;20059;-68
2022/06/23 00:40:47;;;;;;;2.80;2.40;;;;;;;16.98;76.99;101261.09;20952653;28;20068;-68
2022/06/23 00:51:17;;;;;;;3.75;2.80;;;;;;;16.87;76.93;101259.41;20954670;28;20044;-68
2022/06/23 01:01:44;;;;;;;4.63;2.70;;;;;;;16.78;77.66;101268.03;20964245;28;20062;-68
2022/06/23 01:12:16;;;;;;;3.30;3.00;;;;;;;16.77;78.38;101265.56;20946901;28;20362;-68
2022/06/23 01:22:50;;;;;;;5.05;3.45;;;;;;;16.69;79.91;101260.91;20962252;28;20041;-68
2022/06/23 01:33:22;;;;;;;3.78;3.40;;;;;;;16.61;78.17;101265.97;20940458;28;20086;-68
2022/06/23 01:43:52;;;;;;;8.23;4.00;;;;;;;16.53;78.22;101262.28;20948908;28;20048;-69
2022/06/23 01:54:19;;;;;;;5.35;4.82;;;;;;;16.45;78.85;101265.56;20953826;28;20044;-69
2022/06/23 02:04:58;;;;;;;6.60;4.53;;;;;;;16.40;80.37;101260.81;20951309;28;20050;-69
2022/06/23 02:15:28;;;;;;;7.43;5.28;;;;;;;16.32;78.07;101260.56;20962642;28;20561;-68
2022/06/23 02:26:00;;;;;;;6.50;5.07;;;;;;;16.25;79.66;101264.66;20947864;28;20041;-69
2022/06/23 02:36:28;;;;;;;5.93;4.97;;;;;;;16.14;79.99;101246.28;20941778;28;20524;-68
2022/06/23 02:46:55;;;;;;;7.30;4.90;;;;;;;16.05;79.97;101254.88;20938385;28;20037;-67
2022/06/23 02:57:37;;;;;;;7.75;5.10;;;;;;;16.05;80.35;101250.47;20926389;28;20393;-68
2022/06/23 03:08:09;;;;;;;7.20;5.20;;;;;;;15.88;80.38;101250.13;20949426;28;20497;-68
2022/06/23 03:18:54;;;;;;;5.03;4.50;;;;;;;15.95;82.43;101248.69;20944262;28;20044;-65
2022/06/23 03:29:22;;;;;;;6.20;4.03;;;;;;;15.80;81.69;101239.41;20949134;28;20044;-65
2022/06/23 03:50:59;;;;;;;6.53;4.10;;;;;;;15.84;81.99;101246.91;20955599;28;20037;-64
2022/06/23 04:01:56;;;;;;;4.25;3.75;;;;;;;15.99;84.05;101242.25;20948580;28;20048;-67
2022/06/23 04:12:18;;;;;;;3.35;3.05;;;;;;;15.91;80.74;101234.13;20927399;28;20049;-65
2022/06/23 04:22:59;;;;;;;6.78;3.67;;;;;;;16.04;81.73;101232.16;20943670;28;20044;-65
2022/06/23 04:33:23;;;;;;;5.18;4.13;;;;;;;16.09;80.91;101246.63;20941823;28;20396;-64
2022/06/23 04:44:12;;;;;;;6.97;4.63;;;;;;;16.25;82.61;101251.50;20954262;28;20041;-64
2022/06/23 04:54:48;;;;;;;6.25;4.25;;;;;;;16.33;80.84;101243.84;20944969;28;20449;-65
2022/06/23 05:05:18;;;;;;;8.65;5.05;;;;;;;16.45;79.74;101247.13;20950220;28;20382;-67
2022/06/23 05:15:48;;;;;;;7.82;4.53;;;;;;;16.63;80.42;101237.72;20946510;28;20520;-66
2022/06/23 05:26:21;;;;;;;8.87;5.23;;;;;;;16.88;81.88;101252.31;20954152;28;20044;-65
2022/06/23 05:36:55;;;;;;;9.40;5.20;;;;;;;17.02;80.20;101239.66;20954696;28;20055;-64
2022/06/23 05:47:19;;;;;;;8.00;5.43;;;;;;;17.25;77.89;101246.44;20929961;28;20489;-65
2022/06/23 05:57:53;;;;;;;12.45;5.18;;;;;;;17.53;78.70;101245.78;20939947;28;20551;-65
2022/06/23 06:08:29;;;;;;;7.43;5.40;;;;;;;17.81;79.54;101252.94;20934242;28;20125;-65
2022/06/23 06:18:52;;;;;;;8.38;5.38;;;;;;;18.10;76.63;101240.66;20935649;28;20666;-65
2022/06/23 06:29:19;;;;;;;14.75;6.18;;;;;;;18.58;79.46;101235.31;20938101;28;20033;-65
2022/06/23 06:39:55;;;;;;;10.98;5.28;;;;;;;18.95;78.41;101230.94;20963555;28;20044;-66
2022/06/23 06:50:31;;;;;;;10.23;5.63;;;;;;;19.43;78.06;101232.50;20949695;28;20040;-64
2022/06/23 07:01:05;;;;;;;8.05;4.97;;;;;;;19.81;75.06;101232.34;20953240;28;20045;-65
2022/06/23 07:11:33;;;;;;;6.18;3.58;;;;;;;20.29;70.55;101239.97;20952924;28;20543;-66
2022/06/23 07:22:05;;;;;;;11.90;3.95;;;;;;;20.64;68.46;101231.06;20946736;28;20067;-64
2022/06/23 07:33:00;;;;;;;6.93;3.38;;;;;;;21.08;70.34;101221.28;20953813;28;20057;-64
2022/06/23 07:43:37;;;;;;;5.25;2.67;;;;;;;21.47;66.38;101207.44;20946996;28;20051;-64
2022/06/23 07:53:59;;;;;;;6.32;3.00;;;;;;;21.86;64.98;101209.44;20957189;28;20040;-64
2022/06/23 08:04:32;;;;;;;8.13;2.70;;;;;;;22.21;64.21;101211.00;20966877;28;20448;-64
2022/06/23 08:25:45;;;;;;;3.50;1.98;;;;;;;22.85;63.12;101215.34;20954217;28;20040;-64
2022/06/23 08:36:11;;;;;;;3.47;1.95;;;;;;;23.11;61.82;101202.75;20940654;28;20048;-64
2022/06/23 08:46:44;;;;;;;;;;;;;;;23.41;61.92;101207.31;20974440;28;20509;-66
2022/06/23 08:57:16;;;;;;;5.63;2.58;;;;;;;23.73;57.10;101196.50;20948471;28;20086;-65
2022/06/23 09:08:03;;;;;;;4.38;2.22;;;;;;;24.04;58.17;101200.03;20950334;28;20159;-64
2022/06/23 09:18:50;;;;;;;3.35;1.83;;;;;;;24.34;57.77;101186.66;20943097;28;20044;-64
2022/06/23 09:29:24;;;;;;;5.47;2.50;;;;;;;24.65;54.72;101180.25;20933651;28;20497;-65
2022/06/23 09:40:04;;;;;;;;;;;;;;;24.99;58.29;101177.09;20934945;28;20049;-65
2022/06/23 09:50:29;;;;;;;;;;;;;;;25.44;58.60;101167.09;20940134;28;19920;-64
2022/06/23 10:01:00;;;;;;;;;;;;;;;25.75;59.32;101165.03;20957621;28;19928;-64
2022/06/23 10:11:30;;;;;;;;;;;;;;;26.19;57.50;101152.38;20937090;28;19920;-64
2022/06/23 10:22:08;;;;;;;;;;;;;;;26.71;56.56;101142.94;20936065;28;19929;-64
2022/06/23 10:32:42;;;;;;;;;;;;;;;27.04;55.71;101133.31;20941484;28;19928;-64
2022/06/23 10:43:16;;;;;;;;;;;;;;;27.47;54.01;101135.63;20948645;28;20001;-64
2022/06/23 10:53:40;;;;;;;;;;;;;;;28.00;54.75;101118.69;20941416;28;19920;-65
2022/06/23 11:04:24;;;;;;;;;;;;;;;28.52;54.58;101108.84;20937522;28;19920;-65
2022/06/23 11:14:57;;;;;;;;;;;;;;;28.98;54.20;101102.38;20936602;28;19997;-65
2022/06/23 11:25:39;;;;;;;2.83;1.48;;;;;;;29.42;41.76;101093.56;20952724;28;20393;-66
2022/06/23 11:36:29;;;;;;;3.22;1.40;;;;;;;30.01;39.34;101078.75;20937585;28;20366;-66
2022/06/23 11:46:57;;;;;;;3.08;1.27;;;;;;;30.42;39.08;101067.22;20962689;28;20049;-66
2022/06/23 11:57:49;;;;;;;2.27;1.30;;;;;;;30.56;39.14;101063.41;20952337;28;20045;-66
2022/06/23 12:08:29;;;;;;;2.00;1.13;;;;;;;30.64;38.42;101065.81;20940374;28;20059;-66
2022/06/23 12:18:59;;;;;;;6.38;1.50;;;;;;;30.36;40.27;101055.69;20944901;28;20047;-67
2022/06/23 12:29:35;;;;;;;1.58;1.30;;;;;;;30.09;55.28;101046.22;20939841;28;20052;-66
2022/06/23 12:40:17;;;;;;;4.93;1.42;;;;;;;29.61;41.07;101028.94;20947980;28;20048;-66
2022/06/23 12:51:03;;;;;;;4.53;1.50;;;;;;;29.57;41.75;101019.66;20945412;28;20051;-66
2022/06/23 13:01:37;;;;;;;2.40;1.20;;;;;;;29.45;39.55;101008.81;20966677;28;20054;-67
2022/06/23 13:12:23;;;;;;;3.47;1.50;;;;;;;29.46;40.29;100994.31;20939157;28;20578;-67
2022/06/23 13:23:09;;;;;;;3.65;1.40;;;;;;;29.60;36.69;100974.38;20943613;28;20048;-64
2022/06/23 13:33:33;;;;;;;1.50;0.98;;;;;;;29.51;47.47;100969.47;20959222;28;20135;-66
2022/06/23 13:44:37;;;;;;;6.00;1.45;;;;;;;29.42;34.81;100954.63;20943278;28;20051;-66
2022/06/23 13:55:24;;;;;;;3.00;1.20;;;;;;;29.79;35.77;100957.25;20928681;28;20052;-66
2022/06/23 14:06:01;;;;;;;2.57;1.60;;;;;;;28.91;44.05;100948.53;20935549;28;20468;-65
2022/06/23 14:16:37;;;;;;;10.52;3.22;;;;;;;22.95;99.82;100926.13;20940513;28;20404;-62
2022/06/23 14:27:09;;;;;;;228.00;76.18;;;;;;;21.69;100.00;100914.91;20950803;28;20128;-62
2022/06/23 14:37:42;;;;;;;3.80;2.00;;;;;;;20.92;100.00;100903.06;20940373;28;20580;-65
2022/06/23 14:48:23;;;;;;;3.88;1.90;;;;;;;22.86;100.00;100903.22;20929099;28;20048;-65
2022/06/23 14:59:06;;;;;;;1.75;1.50;;;;;;;23.71;99.90;100884.31;20914604;28;20062;-65
2022/06/23 15:09:38;;;;;;;2.08;1.30;;;;;;;24.75;74.56;100879.41;20933876;28;20037;-66
2022/06/23 15:20:22;;;;;;;1.70;1.20;;;;;;;25.53;73.10;100882.88;20920308;28;20047;-66
2022/06/23 15:31:02;;;;;;;2.25;1.30;;;;;;;26.56;49.77;100872.06;20944313;28;20056;-66
2022/06/23 15:42:02;;;;;;;3.03;0.88;;;;;;;26.98;44.91;100861.06;20957059;28;20675;-65
2022/06/23 15:52:33;;;;;;;0.82;0.80;;;;;;;27.99;53.87;100851.59;20939492;28;20049;-65
2022/06/23 16:03:09;;;;;;;2.72;1.00;;;;;;;28.89;43.26;100850.44;20942420;28;20067;-68
2022/06/23 16:13:37;;;;;;;0.88;0.85;;;;;;;29.46;43.03;100838.44;20958281;28;20044;-67
2022/06/23 16:24:07;;;;;;;6.47;0.90;;;;;;;30.14;38.57;100839.19;20937546;28;20044;-65
2022/06/23 16:34:29;;;;;;;0.77;0.77;;;;;;;30.46;55.72;100828.84;20940496;28;20066;-64
2022/06/23 16:44:59;;;;;;;1.65;1.00;;;;;;;31.49;46.31;100841.81;20928417;28;20037;-63
2022/06/23 16:55:43;;;;;;;1.40;0.90;;;;;;;32.09;39.41;100835.13;20920913;28;20049;-65
2022/06/23 17:06:26;;;;;;;1.95;0.88;;;;;;;32.47;39.58;100820.84;20933637;28;20461;-64
2022/06/23 17:16:52;;;;;;;3.00;0.98;;;;;;;32.69;50.05;100827.25;20919213;28;20041;-66
2022/06/23 17:27:33;;;;;;;3.70;0.80;;;;;;;32.48;38.89;100827.88;20943782;28;20045;-65
2022/06/23 17:49:23;;;;;;;1.65;1.00;;;;;;;31.59;37.22;100812.44;20966908;28;20045;-64
2022/06/23 18:00:31;;;;;;;1.98;0.90;;;;;;;31.25;33.89;100805.13;20963904;28;20076;-63
2022/06/23 18:10:57;;;;;;;2.50;0.93;;;;;;;31.15;52.90;100801.38;20946023;28;20136;-65
2022/06/23 18:22:07;;;;;;;1.92;1.20;;;;;;;30.78;37.18;100792.59;20937546;28;20052;-62
2022/06/23 18:33:01;;;;;;;1.55;0.90;;;;;;;30.45;54.96;100794.91;20937282;28;20072;-64
2022/06/23 18:43:30;;;;;;;4.63;1.05;;;;;;;30.09;52.55;100790.66;20880130;28;20052;-64
2022/06/23 18:54:00;;;;;;;;;;;;;;;29.72;36.97;100783.56;20923087;28;20048;-63
2022/06/23 19:04:40;;;;;;;;;;;;;;;29.55;54.75;100774.44;20919013;28;20357;-64
2022/06/23 19:15:05;;;;;;;;;;;;;;;29.25;54.71;100776.19;20951602;28;19931;-68
2022/06/23 19:25:29;;;;;;;;;;;;;;;29.03;55.06;100782.16;20922546;28;19925;-64
2022/06/23 19:36:06;;;;;;;;;;;;;;;28.62;55.09;100779.94;20929118;28;20520;-64
2022/06/23 19:46:28;;;;;;;;;;;;;;;28.38;54.80;100780.69;20922996;28;19921;-65
2022/06/23 19:56:51;;;;;;;;;;;;;;;28.14;54.92;100780.59;20932432;28;20285;-64
2022/06/23 20:07:13;;;;;;;;;;;;;;;27.93;54.40;100788.91;20948714;28;19929;-65
2022/06/23 20:17:53;;;;;;;;;;;;;;;27.70;55.33;100782.38;20944595;28;19932;-65
2022/06/23 20:28:26;;;;;;;;;;;;;;;27.41;55.01;100769.41;20936075;28;19932;-64
2022/06/23 20:38:56;;;;;;;;;;;;;;;27.30;54.78;100759.34;20953046;28;19928;-64
2022/06/23 20:49:38;;;;;;;;;;;;;;;27.06;55.06;100760.00;20931627;28;19932;-65
2022/06/23 21:00:21;;;;;;;2.50;1.60;;;;;;;26.86;45.54;100756.44;20923282;28;20326;-64
2022/06/23 21:10:48;;;;;;;;;;;;;;;26.68;55.21;100763.44;20950064;28;20399;-64
2022/06/23 21:21:43;;;;;;;1.40;1.30;;;;;;;26.53;49.38;100747.53;20935469;28;19927;-64
2022/06/23 21:32:14;;;;;;;3.85;1.30;;;;;;;26.38;52.25;100746.88;20943848;28;20049;-64
2022/06/23 21:42:40;;;;;;;3.72;1.60;;;;;;;26.28;54.04;100736.75;20942456;28;20051;-64
2022/06/23 21:53:17;;;;;;;3.90;1.73;;;;;;;26.07;56.16;100739.56;20959510;28;20066;-64
2022/06/23 22:03:49;;;;;;;3.17;1.73;;;;;;;25.90;54.93;100730.28;20946297;28;20516;-64
2022/06/23 22:14:30;;;;;;;2.25;1.40;;;;;;;25.74;49.22;100719.88;20938682;28;20401;-64
2022/06/23 22:35:37;;;;;;;3.92;1.60;;;;;;;25.46;56.07;100700.44;20940304;28;20067;-64
2022/06/23 22:46:01;;;;;;;2.38;1.65;;;;;;;24.97;56.76;100696.16;20939490;28;20040;-64
2022/06/23 22:56:45;;;;;;;5.80;1.95;;;;;;;24.54;52.87;100692.75;20940541;28;20075;-64
2022/06/23 23:07:16;;;;;;;3.70;1.90;;;;;;;24.71;55.89;100678.13;20941876;28;20036;-64
2022/06/23 23:17:47;;;;;;;2.00;1.50;;;;;;;24.67;54.43;100674.19;20940636;28;20048;-63
2022/06/23 23:28:14;;;;;;;5.05;1.80;;;;;;;24.31;57.11;100664.59;20943370;28;20045;-64
2022/06/23 23:38:49;;;;;;;2.65;1.80;;;;;;;24.23;53.56;100663.91;20941297;28;20052;-64
2022/06/23 23:49:14;;;;;;;2.53;2.08;;;;;;;24.06;56.89;100654.50;20954892;28;20157;-64
2022/06/23 23:59:35;;;;;;;6.82;2.85;;;;;;;24.14;57.25;100646.41;20953373;28;20052;-66
